WEATHER DATA

TODAY
Time Temp. Dewp. Hum. Wind dir Wind speed Wind gust Bar. 1h Prec. 24h Prec.
00:02 5 4 93 0 0.6 1002.9 0.0000 0.0000
00:12 5 4 93 0 0.3 1002.8 0.0000 0.0000
00:27 5.1 4.2 94 0 0.3 1002.8 0.0000 0.0000
00:38 5.2 4.3 94 0 0.3 1002.7 0.0000 0.0000
00:48 5.2 4.3 94 0 0.3 1002.6 0.0000 0.0000
00:58 5.2 4.2 93 0 0.6 1002.7 0.0000 0.0000
01:23 5.2 4.2 93 39 0.3 0.8 1002.4 0.0000 0.0000
01:33 5.2 4.2 93 0 0.6 1002.2 0.0000 0.0000
01:43 5.3 4.3 93 0 0.3 1002.4 0.0000 0.0000
01:54 5.4 4.4 93 0 0.6 1002.3 0.0000 0.0000
02:03 5.4 4.4 93 0 0.6 1002.2 0.0000 0.0000
02:13 5.5 4.5 93 0 0.6 1001.9 0.0000 0.0000
02:23 5.5 4.5 93 33 0.3 1.1 1001.8 0.0000 0.0000
02:39 5.5 4.3 92 35 0.3 1.4 1001.5 0.0000 0.0000
02:49 5.5 4.3 92 37 0.3 1.7 1001.6 0.0000 0.0000
02:59 5.5 4.3 92 42 0.6 1.7 1001.6 0.0000 0.0000
03:09 5.5 4.3 92 45 0.3 1.4 1001.2 0.0000 0.0000
03:34 5.5 4.3 92 45 0.6 1.9 1000.7 0.0000 0.0000
03:45 5.5 4.5 93 35 0.6 1.7 1000.4 0.0000 0.0000
03:59 5.5 4.5 93 41 0.6 2.2 1000.5 0.0000 0.0000
04:09 5.5 4.5 93 45 0.6 1.7 1000.2 0.0000 0.0000
04:20 5.4 4.4 93 45 0.3 2.2 1000.4 0.0000 0.0000
04:30 5.3 4.3 93 0 0.6 1000.7 0.0000 0.0000
04:44 5.2 4.2 93 48 0.3 1.7 1000.4 0.0000 0.0000
04:55 5 4 93 50 0.3 1.1 1000 0.0000 0.0000
05:05 4.9 3.9 93 45 0.6 1.7 1000 0.0000 0.0000
05:25 4.7 3.7 93 45 0.3 1.4 999.7 0.0000 0.0000
05:35 4.6 3.6 93 45 0.6 1.7 999.8 0.0000 0.0000
05:55 4.4 3.4 93 30 0.6 1.7 999.8 0.0000 0.0000
06:06 4.3 3.3 93 32 0.6 1.9 999.7 0.0000 0.0000
06:15 4.3 3.3 93 29 0.6 1.7 999.8 0.0000 0.0000
06:30 4.1 3.1 93 33 0.6 1.9 999.6 0.0000 0.0000
06:41 4 3 93 40 0.6 1.7 999.6 0.0000 0.0000
06:51 3.9 2.9 93 30 0.6 1.9 999.7 0.0000 0.0000
07:01 3.9 2.9 93 37 0.6 2.2 999.4 0.0000 0.0000
07:11 3.8 2.8 93 37 0.6 1.9 999.3 0.0000 0.0000
07:21 3.8 2.8 93 33 0.6 1.7 999.3 0.0000 0.0000
07:31 3.7 2.7 93 34 0.6 1.9 999.4 0.0000 0.0000
07:42 3.7 2.7 93 45 0.3 1.1 999.4 0.0000 0.0000
07:56 3.8 2.8 93 40 0.6 1.9 999.4 0.0000 0.0000
08:06 3.8 2.6 92 42 0.6 2.8 999.4 0.0000 0.0000
08:17 3.7 2.5 92 32 0.6 1.7 999.8 0.0000 0.0000
08:27 3.8 2.6 92 45 0.6 1.4 1000.3 0.0000 0.0000
08:33 3.7 2.5 92 35 0.6 2.5 1000.5 0.0000 0.0000
08:47 3.7 2.5 92 37 0.6 2.5 1000.3 0.0000 0.0000
08:57 3.7 2.5 92 39 0.8 2.8 1000.6 0.0000 0.0000
09:07 3.8 2.6 92 29 0.6 2.5 1000.9 0.0000 0.0000
09:17 3.8 2.6 92 40 0.6 1.7 1001 0.0000 0.0000
09:32 3.8 2.6 92 38 0.3 1.9 1001.4 0.0000 0.0000
09:42 3.8 2.6 92 36 0.3 1.1 1001.2 0.0000 0.0000
09:52 3.8 2.6 92 45 0.3 1.4 1000.9 0.0000 0.0000
09:59 3.9 2.7 92 45 0.3 1.1 1000.8 0.0000 0.0000
10:10 3.9 2.7 92 39 0.3 1.7 1000.6 0.0000 0.0000
10:20 4 2.8 92 39 0.3 1.7 1000.5 0.0000 0.0000
10:29 3.9 2.6 91 45 0.3 1.1 1000.6 0.0000 0.0000
10:39 4 2.7 91 52 0.3 1.1 1000.3 0.0000 0.0000
10:50 4 2.7 91 41 0.6 1.4 1000.2 0.0000 0.0000
11:00 4 2.7 91 41 0.6 1.9 1000.1 0.0000 0.0000
11:10 4.1 2.6 90 42 0.6 1.9 1000 0.1010 0.1000
11:20 4.1 2.6 90 34 0.6 2.5 999.8 0.1010 0.1000
11:30 4.2 2.7 90 40 0.6 2.5 999.7 0.1010 0.1000
11:40 4.2 2.7 90 45 0.3 1.7 1000 0.1010 0.1000
11:50 4.3 2.7 89 43 0.8 2.8 999.9 0.1010 0.1000
12:01 4.3 2.7 89 42 0.6 2.2 999.6 0.1010 0.1000
12:11 4.3 2.7 89 40 0.6 1.9 999.3 0.0000 0.1000
12:20 4.4 2.7 89 40 0.6 2.8 999.1 0.0000 0.1000
12:31 4.5 2.8 89 40 0.6 1.4 999.1 0.0000 0.1000
12:41 4.6 2.8 88 32 0.6 1.7 999.4 0.0000 0.1000
12:51 4.7 2.9 88 38 0.8 2.5 999.9 0.0000 0.1000
13:01 4.7 2.7 87 38 0.6 2.2 999.8 0.0000 0.1000
13:11 4.7 2.6 86 38 1.1 2.8 999.6 0.0000 0.1000
13:21 4.8 2.8 87 45 0.6 1.9 999.9 0.0000 0.1000
13:36 4.9 2.9 87 48 0.6 1.4 1000 0.0000 0.1000
13:47 4.9 2.9 87 45 0.3 1.1 999.9 0.0000 0.1000
13:57 4.9 2.8 86 45 0.6 1.7 999.5 0.0000 0.1000
14:06 5 2.9 86 52 0.3 1.4 999.5 0.0000 0.1000
14:16 5 2.9 86 42 0.6 1.9 999.5 0.0000 0.1000
14:27 5.1 3 86 45 0.3 1.4 999.7 0.0000 0.1000
14:37 5.1 3 86 51 0.6 1.9 999.7 0.0000 0.1000
14:47 5.1 3 86 52 0.6 1.9 999.7 0.0000 0.1000
14:57 5.2 2.9 85 37 0.6 2.2 999.5 0.0000 0.1000
15:07 5.3 3 85 42 0.6 1.9 999.4 0.0000 0.1000
15:17 5.3 3 85 40 0.6 2.5 999.6 0.0000 0.1000
15:27 5.3 3 85 51 0.6 1.7 999.6 0.0000 0.1000
15:38 5.3 3 85 45 0.3 1.4 999.6 0.0000 0.1000
15:48 5.3 3 85 54 0.6 1.9 999.7 0.0000 0.1000
15:57 5.3 3 85 55 0.3 1.7 999.6 0.0000 0.1000
16:08 5.2 2.9 85 49 0.3 1.4 999.8 0.0000 0.1000
16:18 5.2 3.1 86 38 0.3 1.1 999.9 0.0000 0.1000
16:28 5.2 3.1 86 45 0.3 1.4 1000 0.0000 0.1000
16:38 5.2 3.1 86 55 0.3 1.4 1000 0.0000 0.1000
16:49 5.2 3.1 86 49 0.3 1.7 1000 0.0000 0.1000
16:58 5.2 3.1 86 49 0.3 1.1 1000.1 0.0000 0.1000
17:08 5.2 3.1 86 90 0.3 1.9 1000.2 0.0000 0.1000
17:18 5.2 3.1 86 56 0.3 1.1 1000.4 0.0000 0.1000
17:29 5.1 3.1 87 45 0.3 1.1 1000.6 0.0000 0.1000
17:39 5.1 3.1 87 45 0.3 1.4 1000.7 0.0000 0.1000
17:48 5.1 3.1 87 51 0.6 1.9 1000.8 0.0000 0.1000
17:59 5.1 3.1 87 53 0.3 0.8 1000.7 0.0000 0.1000
18:09 5.1 3.1 87 51 0.3 1.4 1000.7 0.0000 0.1000
18:19 5.1 3.3 88 41 0.3 1.7 1000.9 0.0000 0.1000
18:29 5.1 3.3 88 45 0.3 2.2 1001 0.0000 0.1000
18:39 5.2 3.4 88 49 0.3 1.4 1001 0.0000 0.1000
18:49 5.2 3.4 88 48 0.6 1.7 1001 0.0000 0.1000
18:59 5.3 3.5 88 54 0.3 1.1 1001.1 0.0000 0.1000
19:10 5.3 3.5 88 45 0.3 1.1 1001.2 0.0000 0.1000
19:20 5.3 3.5 88 60 0.3 0.8 1001.6 0.0000 0.1000
19:30 5.4 3.6 88 90 0.3 1.7 1001.8 0.0000 0.1000
19:39 5.5 3.7 88 158 0.6 2.2 1002 0.0000 0.1000
19:50 5.6 3.4 86 170 1.4 2.8 1002.1 0.0000 0.1000
20:00 5.7 3.2 84 161 0.8 2.5 1002.2 0.0000 0.1000
20:10 5.7 3 83 145 0.8 2.5 1002.1 0.0000 0.1000
20:20 5.8 3 82 176 0.8 2.5 1001.9 0.0000 0.1000
20:30 5.7 2.7 81 191 0.8 2.8 1001.7 0.0000 0.1000
20:40 5.7 2.5 80 162 0.8 2.5 1001.9 0.0000 0.1000
20:50 5.7 2.5 80 171 0.8 2.2 1002 0.0000 0.1000
21:01 5.7 2.7 81 138 0.6 1.4 1002.2 0.0000 0.1000
21:11 5.7 2.7 81 160 0.6 1.7 1002.3 0.0000 0.1000
21:21 5.7 2.7 81 150 0.8 1.9 1002.3 0.0000 0.1000
21:31 5.5 2.5 81 173 0.3 1.7 1002.4 0.0000 0.1000
21:41 5.3 2.3 81 135 0.3 1.4 1002.6 0.0000 0.1000
21:51 5.1 2.3 82 45 0.3 0.6 1002.7 0.0000 0.1000
22:01 4.9 2.1 82 11 0.3 0.8 1003 0.0000 0.1000

DAY STATISTIC

2019-11-15
TEMPERATURE
AVERAGE
4.8
HIGH
5.8
20:20
LOW
3.7
07:31
PRESSURE
AVERAGE
1000.7
HIGH
1003.0
22:01
LOW
999.1
12:20
DEWPOINT
AVERAGE
3.2
HIGH
4.5
02:13
LOW
2.1
22:01
HUMIDITY
AVERAGE
89
HIGH
94
00:27
LOW
80
20:40
WIND SPEED
AVERAGE
0.5
HIGH
1.4
19:50
WIND GUST
AVERAGE
1.6
HIGH
2.8
08:06
WIND DIRECTION
PREVAILING
NE
77.2%
N
0.8
NE
77.2
E
1.6
SE
3.3
S
7.3
SW
0.0
W
0.0
NW
0.0
PRECIPITATION
RAIN HOUR
0.1
RAIN DAY
0.1
TEMPERATURE (°C)
LOW
3.7
HIGH
5.8
AVERAGE
4.8
PRESSURE (hpa)
LOW
999.1
HIGH
1003.0
AVERAGE
1000.7
DEVICE